Terminal Aerodrome Forecast
Issued by NWS

Home | Current Version | Previous Version | Text Only | Print | Product List | Glossary Off
Versions: 1 2 3 4 5 6 7 8 9 10 11 12 13 14 15 16 17 18 19 20 21 22 23 24 25 26 27 28 29 30

000
FTUS43 KABR 160400 AAB
TAFPIR
TAF AMD
KPIR 160403Z 1604/1624 12013KT P6SM OVC120
     FM160900 09015KT P6SM -RA OVC050
     FM161200 01019G25KT 4SM -RASN OVC030
     FM161400 36027G35KT 2SM -SN BR OVC025
     FM161800 36023G29KT P6SM OVC030=

USA.gov is the U.S. government's official web portal to all federal, state and local government web resources and services.